This is the latest recevied weather packets stored in our database for station/object N8AMF. If no packets are shown the sender has not sent any weather packets the latest 1 day(s).
| Time | Temp. | Humidity | Pressure | Rain* | Wind** | Luminosity | Snow |
|---|---|---|---|---|---|---|---|
| 1778088658 | 11.11° C | 75% | 1011.8 hPa | 0 mm | - | 1114 W/m² | - |
| 1778087144 | 11.67° C | 75% | 1011.7 hPa | 0 mm | - | 655 W/m² | - |
| 1778086534 | 11.67° C | 74% | 1012.1 hPa | 0 mm | - | 580 W/m² | - |
| 1778085927 | 11.67° C | 73% | 1012 hPa | 0 mm | - | 1104 W/m² | - |
| 1778085320 | 11.67° C | 72% | 1011.7 hPa | 0 mm | - | 575 W/m² | - |
| 1778084107 | 11.11° C | 73% | 1011.4 hPa | 0 mm | - | 900 W/m² | - |
| 1778081480 | 11.11° C | 77% | 1011 hPa | 0 mm | - | 854 W/m² | - |
| 1778081177 | 11.11° C | 79% | 1011.2 hPa | 0 mm | - | 851 W/m² | - |
| 1778079360 | 10.56° C | 83% | 1010.4 hPa | 0 mm | - | 326 W/m² | - |
| 1778078451 | 11.67° C | 77% | 1010.2 hPa | 0 mm | - | 682 W/m² | - |
| 1778078149 | 11.67° C | 77% | 1010.4 hPa | 0 mm | - | 755 W/m² | - |
| 1778077847 | 12.22° C | 78% | 1010.2 hPa | 0 mm | - | 719 W/m² | - |
| 1778076638 | 11.11° C | 83% | 1010 hPa | 0 mm | - | 391 W/m² | - |
| 1778076335 | 10.56° C | 83% | 1009.9 hPa | 0 mm | - | 401 W/m² | - |
| 1778075425 | 10° C | 84% | 1009.8 hPa | 0 mm | - | 258 W/m² | - |
| 1778074212 | 9.44° C | 86% | 1010 hPa | 0 mm | - | 224 W/m² | - |
| 1778073000 | 8.89° C | 93% | 1009.5 hPa | 0 mm | - | 204 W/m² | - |
| 1778071790 | 8.33° C | 97% | 1009.2 hPa | 0 mm | - | 124 W/m² | - |
| 1778070883 | 7.78° C | 98% | 1009 hPa | 0 mm | - | 82 W/m² | - |
| 1778070277 | 7.22° C | 98% | 1008.8 hPa | 0 mm | - | 85 W/m² | - |
| 1778069672 | 7.22° C | 98% | 1008.4 hPa | 0 mm | - | 66 W/m² | - |
| 1778069369 | 7.22° C | 99% | 1008.5 hPa | 0 mm | - | 44 W/m² | - |
| 1778068160 | 7.78° C | 99% | 1009 hPa | 0 mm | - | 27 W/m² | - |
| 1778067857 | 7.78° C | 99% | 1009.1 hPa | 0 mm | - | 20 W/m² | - |
| 1778067556 | 7.78° C | 99% | 1008.9 hPa | 0 mm | - | 27 W/m² | - |
* Rain latest hour (hover to see other rain measurements)
** Current wind speed in m/s (hover to see current wind gust speed)